Time,TemperatureF,DewpointF,PressureIn,WindDirection,WindDirectionDegrees,WindSpeedMPH,WindSpeedGustMPH,Humidity,HourlyPrecipIn,Conditions,Clouds,dailyrainin,SoftwareType,DateUTC
2013-06-26 00:01:00,75.9,53.7,25.34,SE,135,7.2,9.6,46,0.00,,---,0.00,VWS V14.01,2013-06-26 05:01:00,
2013-06-26 00:06:00,75.7,53.5,25.34,ESE,112,8.1,9.6,46,0.00,,---,0.00,VWS V14.01,2013-06-26 05:06:00,
2013-06-26 00:11:00,75.9,53.7,25.34,South,180,7.6,10.7,46,0.00,,---,0.00,VWS V14.01,2013-06-26 05:11:00,
2013-06-26 00:16:00,75.9,53.7,25.34,SE,135,11.0,11.0,46,0.00,,---,0.00,VWS V14.01,2013-06-26 05:16:00,
2013-06-26 00:21:00,76.1,53.8,25.34,SSE,158,9.4,12.8,46,0.00,,---,0.00,VWS V14.01,2013-06-26 05:21:00,
2013-06-26 00:26:00,76.5,54.2,25.34,SSE,158,12.8,15.9,46,0.00,,---,0.00,VWS V14.01,2013-06-26 05:26:00,
2013-06-26 00:31:00,76.5,53.6,25.34,SE,135,7.6,7.6,45,0.00,,---,0.00,VWS V14.01,2013-06-26 05:31:00,
2013-06-26 00:36:00,76.3,54.0,25.34,SE,135,10.1,10.1,46,0.00,,---,0.00,VWS V14.01,2013-06-26 05:36:00,
2013-06-26 00:41:00,75.9,53.7,25.34,SE,135,10.5,10.5,46,0.00,,---,0.00,VWS V14.01,2013-06-26 05:41:00,
2013-06-26 00:46:00,75.9,54.3,25.37,SE,135,8.7,11.0,47,0.00,,---,0.00,VWS V14.01,2013-06-26 05:46:00,
2013-06-26 00:51:00,75.7,54.1,25.37,ESE,112,10.3,15.9,47,0.00,,---,0.00,VWS V14.01,2013-06-26 05:51:00,
2013-06-26 00:56:00,75.7,54.7,25.37,SE,135,12.1,16.1,48,0.00,,---,0.00,VWS V14.01,2013-06-26 05:56:00,
2013-06-26 01:01:00,75.6,54.5,25.34,SE,135,13.2,13.2,48,0.00,,---,0.00,VWS V14.01,2013-06-26 06:01:00,
2013-06-26 01:06:00,75.6,54.5,25.34,SE,135,10.1,11.4,48,0.00,,---,0.00,VWS V14.01,2013-06-26 06:06:00,
2013-06-26 01:11:00,75.6,54.5,25.34,South,180,13.0,13.0,48,0.00,,---,0.00,VWS V14.01,2013-06-26 06:11:00,
2013-06-26 01:16:00,75.7,54.7,25.34,SSE,158,14.1,14.3,48,0.00,,---,0.00,VWS V14.01,2013-06-26 06:16:00,
2013-06-26 01:21:00,75.6,54.5,25.34,SE,135,13.4,13.4,48,0.00,,---,0.00,VWS V14.01,2013-06-26 06:21:00,
2013-06-26 01:26:00,75.4,54.9,25.34,SSE,158,7.6,7.6,49,0.00,,---,0.00,VWS V14.01,2013-06-26 06:26:00,
2013-06-26 01:31:00,75.4,54.9,25.34,SSE,158,12.5,13.2,49,0.00,,---,0.00,VWS V14.01,2013-06-26 06:31:00,
2013-06-26 01:36:00,75.2,55.3,25.34,SE,135,18.6,18.6,50,0.00,,---,0.00,VWS V14.01,2013-06-26 06:36:00,
2013-06-26 01:41:00,75.0,55.7,25.34,SE,135,10.5,12.8,51,0.00,,---,0.00,VWS V14.01,2013-06-26 06:41:00,
2013-06-26 01:46:00,75.0,56.2,25.34,SE,135,15.7,15.7,52,0.00,,---,0.00,VWS V14.01,2013-06-26 06:46:00,
2013-06-26 01:51:00,74.7,56.4,25.34,SSE,158,10.5,15.7,53,0.00,,---,0.00,VWS V14.01,2013-06-26 06:51:00,
2013-06-26 01:56:00,74.7,56.4,25.34,SSE,158,14.8,14.8,53,0.00,,---,0.00,VWS V14.01,2013-06-26 06:56:00,
2013-06-26 02:01:00,74.3,56.6,25.34,SE,135,11.9,11.9,54,0.00,,---,0.00,VWS V14.01,2013-06-26 07:01:00,
2013-06-26 02:06:00,74.1,56.4,25.34,SE,135,11.0,12.5,54,0.00,,---,0.00,VWS V14.01,2013-06-26 07:06:00,
2013-06-26 02:11:00,74.1,56.4,25.34,SE,135,12.5,12.5,54,0.00,,---,0.00,VWS V14.01,2013-06-26 07:11:00,
2013-06-26 02:16:00,73.9,56.8,25.34,SSE,158,9.8,11.9,55,0.00,,---,0.00,VWS V14.01,2013-06-26 07:16:00,
2013-06-26 02:21:00,73.9,56.8,25.34,SE,135,7.8,11.4,55,0.00,,---,0.00,VWS V14.01,2013-06-26 07:21:00,
2013-06-26 02:26:00,73.8,56.6,25.34,South,180,8.1,9.4,55,0.00,,---,0.00,VWS V14.01,2013-06-26 07:26:00,
2013-06-26 02:31:00,73.6,56.9,25.37,SSE,158,7.8,8.7,56,0.00,,---,0.00,VWS V14.01,2013-06-26 07:31:00,
2013-06-26 02:36:00,73.4,56.8,25.37,South,180,4.9,6.0,56,0.00,,---,0.00,VWS V14.01,2013-06-26 07:36:00,
2013-06-26 02:41:00,73.2,57.1,25.37,WSW,248,5.4,6.0,57,0.00,,---,0.00,VWS V14.01,2013-06-26 07:41:00,
2013-06-26 02:46:00,73.0,57.4,25.37,SW,225,6.5,7.2,58,0.00,,---,0.00,VWS V14.01,2013-06-26 07:46:00,
2013-06-26 02:51:00,73.6,57.4,25.37,WSW,248,9.6,9.6,57,0.00,,---,0.00,VWS V14.01,2013-06-26 07:51:00,
2013-06-26 02:56:00,73.9,56.8,25.37,WSW,248,5.6,8.5,55,0.00,,---,0.00,VWS V14.01,2013-06-26 07:56:00,
2013-06-26 03:01:00,74.1,56.9,25.37,SW,225,7.4,7.4,55,0.00,,---,0.00,VWS V14.01,2013-06-26 08:01:00,
2013-06-26 03:06:00,74.1,56.4,25.37,South,180,3.1,4.0,54,0.00,,---,0.00,VWS V14.01,2013-06-26 08:06:00,
2013-06-26 03:11:00,74.3,56.6,25.37,SSW,202,6.9,6.9,54,0.00,,---,0.00,VWS V14.01,2013-06-26 08:11:00,
2013-06-26 03:16:00,74.5,56.8,25.37,South,180,6.0,6.0,54,0.00,,---,0.00,VWS V14.01,2013-06-26 08:16:00,
2013-06-26 03:21:00,74.7,56.4,25.37,SW,225,4.7,9.0,53,0.00,,---,0.00,VWS V14.01,2013-06-26 08:21:00,
2013-06-26 03:26:00,74.7,56.4,25.37,South,180,3.6,5.6,53,0.00,,---,0.00,VWS V14.01,2013-06-26 08:26:00,
2013-06-26 03:31:00,74.8,56.0,25.37,SSW,202,3.6,4.7,52,0.00,,---,0.00,VWS V14.01,2013-06-26 08:31:00,
2013-06-26 03:36:00,74.8,55.5,25.37,SSW,202,3.6,4.7,51,0.00,,---,0.00,VWS V14.01,2013-06-26 08:36:00,
2013-06-26 03:41:00,74.7,55.3,25.37,SSW,202,4.0,4.0,51,0.00,,---,0.00,VWS V14.01,2013-06-26 08:41:00,
2013-06-26 03:46:00,74.7,55.3,25.37,SSW,202,2.7,3.6,51,0.00,,---,0.00,VWS V14.01,2013-06-26 08:46:00,
2013-06-26 03:51:00,74.5,55.7,25.37,South,180,4.0,4.0,52,0.00,,---,0.00,VWS V14.01,2013-06-26 08:51:00,
2013-06-26 03:56:00,74.7,55.3,25.37,SSE,158,4.9,4.9,51,0.00,,---,0.00,VWS V14.01,2013-06-26 08:56:00,
2013-06-26 04:01:00,74.5,55.2,25.37,South,180,2.7,5.6,51,0.00,,---,0.00,VWS V14.01,2013-06-26 09:01:00,
2013-06-26 04:06:00,74.3,55.6,25.37,South,180,3.4,3.4,52,0.00,,---,0.00,VWS V14.01,2013-06-26 09:06:00,
2013-06-26 04:11:00,74.3,55.0,25.37,South,180,3.6,4.0,51,0.00,,---,0.00,VWS V14.01,2013-06-26 09:11:00,
2013-06-26 04:16:00,74.1,54.3,25.37,SSW,202,3.1,4.0,50,0.00,,---,0.00,VWS V14.01,2013-06-26 09:16:00,
2013-06-26 04:21:00,74.1,54.3,25.37,SE,135,3.1,4.5,50,0.00,,---,0.00,VWS V14.01,2013-06-26 09:21:00,
2013-06-26 04:26:00,75.4,53.8,25.37,SE,135,3.8,6.0,47,0.00,,---,0.00,VWS V14.01,2013-06-26 09:26:00,
2013-06-26 04:31:00,75.9,53.1,25.37,South,180,2.5,2.5,45,0.00,,---,0.00,VWS V14.01,2013-06-26 09:31:00,
2013-06-26 04:36:00,75.2,53.0,25.37,SE,135,3.4,3.4,46,0.00,,---,0.00,VWS V14.01,2013-06-26 09:36:00,
2013-06-26 04:41:00,75.0,52.9,25.37,SW,225,2.2,2.9,46,0.00,,---,0.00,VWS V14.01,2013-06-26 09:41:00,
2013-06-26 04:46:00,74.7,53.1,25.34,SSW,202,3.1,3.4,47,0.00,,---,0.00,VWS V14.01,2013-06-26 09:46:00,
2013-06-26 04:51:00,74.7,53.1,25.34,SW,225,6.5,6.5,47,0.00,,---,0.00,VWS V14.01,2013-06-26 09:51:00,
2013-06-26 04:56:00,75.4,52.6,25.34,WSW,248,7.6,9.8,45,0.00,,---,0.00,VWS V14.01,2013-06-26 09:56:00,
2013-06-26 05:01:00,75.6,52.1,25.37,SW,225,1.6,2.7,44,0.00,,---,0.00,VWS V14.01,2013-06-26 10:01:00,
2013-06-26 05:06:00,75.6,51.5,25.37,SW,225,0.9,0.9,43,0.00,,---,0.00,VWS V14.01,2013-06-26 10:06:00,
2013-06-26 05:11:00,75.4,52.0,25.37,SSE,158,5.4,6.0,44,0.00,,---,0.00,VWS V14.01,2013-06-26 10:11:00,
2013-06-26 05:16:00,75.9,51.2,25.37,SE,135,6.3,6.5,42,0.00,,---,0.00,VWS V14.01,2013-06-26 10:16:00,
2013-06-26 05:21:00,75.9,50.5,25.37,South,180,3.8,5.8,41,0.00,,---,0.00,VWS V14.01,2013-06-26 10:21:00,
2013-06-26 05:26:00,75.6,50.9,25.37,SE,135,7.6,9.8,42,0.00,,---,0.00,VWS V14.01,2013-06-26 10:26:00,
2013-06-26 05:31:00,75.2,51.2,25.37,SSE,158,6.3,6.5,43,0.00,,---,0.00,VWS V14.01,2013-06-26 10:31:00,
2013-06-26 05:36:00,75.0,50.4,25.37,South,180,3.8,6.0,42,0.00,,---,0.00,VWS V14.01,2013-06-26 10:36:00,
2013-06-26 05:41:00,75.2,49.2,25.37,South,180,5.6,6.5,40,0.00,,---,0.00,VWS V14.01,2013-06-26 10:41:00,
2013-06-26 05:46:00,75.0,49.1,25.37,SSW,202,6.0,6.3,40,0.00,,---,0.00,VWS V14.01,2013-06-26 10:46:00,
2013-06-26 05:51:00,75.2,47.9,25.37,South,180,6.0,6.0,38,0.00,,---,0.00,VWS V14.01,2013-06-26 10:51:00,
2013-06-26 05:56:00,75.2,47.2,25.37,SSW,202,2.7,4.3,37,0.00,,---,0.00,VWS V14.01,2013-06-26 10:56:00,
2013-06-26 06:01:00,75.0,46.3,25.37,South,180,4.3,4.7,36,0.00,,---,0.00,VWS V14.01,2013-06-26 11:01:00,
2013-06-26 06:06:00,75.2,46.4,25.37,SSW,202,5.8,8.5,36,0.00,,---,0.00,VWS V14.01,2013-06-26 11:06:00,
2013-06-26 06:11:00,75.2,47.2,25.37,SSW,202,6.3,7.6,37,0.00,,---,0.00,VWS V14.01,2013-06-26 11:11:00,
2013-06-26 06:16:00,74.3,47.8,25.34,SSW,202,5.8,5.8,39,0.00,,---,0.00,VWS V14.01,2013-06-26 11:16:00,
2013-06-26 06:21:00,73.9,47.5,25.34,South,180,4.0,4.0,39,0.00,,---,0.00,VWS V14.01,2013-06-26 11:21:00,
2013-06-26 06:26:00,73.6,47.8,25.34,South,180,4.9,5.8,40,0.00,,---,0.00,VWS V14.01,2013-06-26 11:26:00,
2013-06-26 06:31:00,73.9,47.5,25.37,South,180,8.1,8.1,39,0.00,,---,0.00,VWS V14.01,2013-06-26 11:31:00,
2013-06-26 06:36:00,74.1,46.9,25.37,South,180,6.7,7.2,38,0.00,,---,0.00,VWS V14.01,2013-06-26 11:36:00,
2013-06-26 06:41:00,73.9,46.8,25.37,SSE,158,7.8,7.8,38,0.00,,---,0.00,VWS V14.01,2013-06-26 11:41:00,
2013-06-26 06:46:00,73.9,46.8,25.37,South,180,4.0,7.4,38,0.00,,---,0.00,VWS V14.01,2013-06-26 11:46:00,
2013-06-26 06:51:00,73.6,46.4,25.37,SSW,202,7.4,7.6,38,0.00,,---,0.00,VWS V14.01,2013-06-26 11:51:00,
2013-06-26 06:56:00,74.3,46.4,25.37,SSW,202,4.0,6.5,37,0.00,,---,0.00,VWS V14.01,2013-06-26 11:56:00,
2013-06-26 07:01:00,74.5,45.8,25.37,South,180,4.9,6.5,36,0.00,,---,0.00,VWS V14.01,2013-06-26 12:01:00,
2013-06-26 07:06:00,73.9,46.0,25.37,South,180,3.6,4.9,37,0.00,,---,0.00,VWS V14.01,2013-06-26 12:06:00,
2013-06-26 07:11:00,73.4,47.0,25.37,SSW,202,2.9,2.9,39,0.00,,---,0.00,VWS V14.01,2013-06-26 12:11:00,
2013-06-26 07:16:00,73.0,48.0,25.37,South,180,3.6,4.3,41,0.00,,---,0.00,VWS V14.01,2013-06-26 12:16:00,
2013-06-26 07:21:00,72.9,47.8,25.37,South,180,2.9,3.8,41,0.00,,---,0.00,VWS V14.01,2013-06-26 12:21:00,
2013-06-26 07:26:00,73.0,48.0,25.37,South,180,3.6,5.8,41,0.00,,---,0.00,VWS V14.01,2013-06-26 12:26:00,
2013-06-26 07:31:00,73.9,47.5,25.37,SSE,158,5.8,5.8,39,0.00,,---,0.00,VWS V14.01,2013-06-26 12:31:00,
2013-06-26 07:36:00,74.3,47.8,25.37,South,180,3.6,5.4,39,0.00,,---,0.00,VWS V14.01,2013-06-26 12:36:00,
2013-06-26 07:41:00,74.7,48.1,25.37,SSE,158,3.6,3.6,39,0.00,,---,0.00,VWS V14.01,2013-06-26 12:41:00,
2013-06-26 07:46:00,75.7,46.2,25.37,SSW,202,4.0,4.0,35,0.00,,---,0.00,VWS V14.01,2013-06-26 12:46:00,
2013-06-26 07:51:00,76.3,47.4,25.37,SSW,202,3.1,4.3,36,0.00,,---,0.00,VWS V14.01,2013-06-26 12:51:00,
2013-06-26 07:56:00,76.8,47.1,25.37,SSW,202,5.6,5.6,35,0.00,,---,0.00,VWS V14.01,2013-06-26 12:56:00,
2013-06-26 08:01:00,77.5,47.0,25.37,SSW,202,2.0,4.0,34,0.00,,---,0.00,VWS V14.01,2013-06-26 13:01:00,
2013-06-26 08:06:00,78.3,46.0,25.37,SW,225,4.0,4.3,32,0.00,,---,0.00,VWS V14.01,2013-06-26 13:06:00,
2013-06-26 08:11:00,79.2,46.0,25.37,SW,225,4.3,4.9,31,0.00,,---,0.00,VWS V14.01,2013-06-26 13:11:00,
2013-06-26 08:19:00,79.7,45.6,25.37,SSW,202,6.5,6.5,30,0.00,,---,0.00,VWS V14.01,2013-06-26 13:19:00,
2013-06-26 08:27:00,79.9,45.7,25.37,SSW,202,4.0,6.5,30,0.00,,---,0.00,VWS V14.01,2013-06-26 13:27:00,
2013-06-26 08:32:00,81.7,47.3,25.37,SSW,202,2.9,3.8,30,0.00,,---,0.00,VWS V14.01,2013-06-26 13:32:00,
2013-06-26 08:37:00,82.4,44.1,25.37,SW,225,6.5,7.6,26,0.00,,---,0.00,VWS V14.01,2013-06-26 13:37:00,
2013-06-26 08:42:00,82.6,45.2,25.37,SW,225,3.4,5.6,27,0.00,,---,0.00,VWS V14.01,2013-06-26 13:42:00,
2013-06-26 08:47:00,84.0,48.4,25.37,WNW,292,0.9,2.0,29,0.00,,---,0.00,VWS V14.01,2013-06-26 13:47:00,
2013-06-26 08:52:00,85.6,49.8,25.37,NNE,22,0.0,0.0,29,0.00,,---,0.00,VWS V14.01,2013-06-26 13:52:00,
2013-06-26 08:57:00,86.7,47.8,25.37,SW,225,0.0,2.0,26,0.00,,---,0.00,VWS V14.01,2013-06-26 13:57:00,
2013-06-26 09:02:00,86.4,45.3,25.37,West,270,4.9,5.6,24,0.00,,---,0.00,VWS V14.01,2013-06-26 14:02:00,
2013-06-26 09:07:00,85.6,42.5,25.37,WSW,248,8.5,8.5,22,0.00,,---,0.00,VWS V14.01,2013-06-26 14:07:00,
2013-06-26 09:12:00,85.1,43.2,25.37,West,270,6.0,6.5,23,0.00,,---,0.00,VWS V14.01,2013-06-26 14:12:00,
2013-06-26 09:18:00,85.1,43.2,25.37,West,270,7.2,7.2,23,0.00,,---,0.00,VWS V14.01,2013-06-26 14:18:00,
2013-06-26 09:27:00,85.3,42.2,25.37,West,270,7.2,7.2,22,0.00,,---,0.00,VWS V14.01,2013-06-26 14:27:00,